createdAt,value
2022-11-21T00:01:19.616Z,0.85
2022-11-21T00:03:47.212Z,0.70
2022-11-21T00:06:14.852Z,0.70
2022-11-21T00:08:42.544Z,0.60
2022-11-21T00:11:10.063Z,0.70
2022-11-21T00:13:37.750Z,0.80
2022-11-21T00:16:06.908Z,0.60
2022-11-21T00:18:35.264Z,0.95
2022-11-21T00:21:13.811Z,0.60
2022-11-21T00:23:42.599Z,0.60
2022-11-21T00:26:11.066Z,0.60
2022-11-21T00:28:38.734Z,0.40
2022-11-21T00:31:06.840Z,1.30
2022-11-21T00:33:39.087Z,0.60
2022-11-21T00:36:08.220Z,0.82
2022-11-21T00:38:35.870Z,0.80
2022-11-21T00:41:03.425Z,0.60
2022-11-21T00:43:31.089Z,0.63
2022-11-21T00:46:01.353Z,0.70
2022-11-21T00:50:58.110Z,0.52
2022-11-21T00:53:25.674Z,0.60
2022-11-21T00:55:53.408Z,0.63
2022-11-21T00:58:23.945Z,0.60
2022-11-21T01:00:51.577Z,0.73
2022-11-21T01:03:19.267Z,0.80
2022-11-21T01:05:46.918Z,0.60
2022-11-21T01:08:14.447Z,0.65
2022-11-21T01:10:41.873Z,0.70
2022-11-21T01:13:09.426Z,0.90
2022-11-21T01:15:36.591Z,0.70
2022-11-21T01:18:04.581Z,0.65
2022-11-21T01:20:32.335Z,0.75
2022-11-21T01:23:00.860Z,0.70
2022-11-21T01:25:28.376Z,0.60
2022-11-21T01:27:55.802Z,0.90
2022-11-21T01:30:23.401Z,0.77
2022-11-21T01:32:51.134Z,0.55
2022-11-21T01:35:19.508Z,0.60
2022-11-21T01:37:50.003Z,0.70
2022-11-21T01:40:18.791Z,0.75
2022-11-21T01:42:59.352Z,0.70
2022-11-21T01:46:04.150Z,0.90
2022-11-21T01:49:00.824Z,0.93
2022-11-21T01:51:46.146Z,0.47
2022-11-21T01:54:29.729Z,0.52
2022-11-21T01:57:17.991Z,0.70
2022-11-21T02:00:08.943Z,0.70
2022-11-21T02:02:43.643Z,0.50
2022-11-21T02:05:20.776Z,0.65
2022-11-21T02:07:49.840Z,0.82
2022-11-21T02:10:17.540Z,0.70
2022-11-21T02:12:52.004Z,0.60
2022-11-21T02:15:25.625Z,0.68
2022-11-21T02:17:53.124Z,0.77
2022-11-21T02:20:21.803Z,0.65
2022-11-21T02:23:01.099Z,0.68
2022-11-21T02:25:36.147Z,0.50
2022-11-21T02:28:07.013Z,0.57
2022-11-21T02:30:37.712Z,0.85
2022-11-21T02:33:06.050Z,0.60
2022-11-21T02:35:36.524Z,0.80
2022-11-21T02:38:28.127Z,0.90
2022-11-21T02:41:26.764Z,0.73
2022-11-21T02:44:02.736Z,0.82
2022-11-21T02:46:30.344Z,0.63
2022-11-21T02:48:58.804Z,0.80
2022-11-21T02:51:26.524Z,0.55
2022-11-21T02:53:54.125Z,0.60
2022-11-21T02:56:22.037Z,0.90
2022-11-21T02:58:50.071Z,0.77
2022-11-21T03:01:17.850Z,0.70
2022-11-21T03:03:45.471Z,0.63
2022-11-21T03:06:13.007Z,0.90
2022-11-21T03:08:40.737Z,0.90
2022-11-21T03:11:08.737Z,1.02
2022-11-21T03:13:36.262Z,0.73
2022-11-21T03:16:03.757Z,0.82
2022-11-21T03:18:32.415Z,0.68
2022-11-21T03:21:00.010Z,0.93
2022-11-21T03:23:27.736Z,0.57
2022-11-21T03:25:55.862Z,0.45
2022-11-21T03:28:23.322Z,0.60
2022-11-21T03:30:51.051Z,0.77
2022-11-21T03:33:18.984Z,0.80
2022-11-21T03:35:47.805Z,0.70
2022-11-21T03:38:15.366Z,0.52
2022-11-21T03:40:42.996Z,0.63
2022-11-21T03:43:10.757Z,0.50
2022-11-21T03:45:38.391Z,0.73
2022-11-21T03:48:06.122Z,0.70
2022-11-21T03:50:33.797Z,0.55
2022-11-21T03:53:01.340Z,0.57
2022-11-21T03:55:29.020Z,0.65
2022-11-21T03:57:56.648Z,0.60
2022-11-21T04:00:24.628Z,0.95
2022-11-21T04:02:53.227Z,0.90
2022-11-21T04:05:20.891Z,0.80
2022-11-21T04:07:48.726Z,0.55
2022-11-21T04:10:16.870Z,1.25
2022-11-21T04:12:44.650Z,0.73
2022-11-21T04:15:13.822Z,1.20
2022-11-21T04:17:41.967Z,0.68
2022-11-21T04:20:10.103Z,0.80
2022-11-21T04:22:37.396Z,0.65
2022-11-21T04:25:05.503Z,1.35
2022-11-21T04:27:33.018Z,1.05
2022-11-21T04:30:00.787Z,0.93
2022-11-21T04:32:28.399Z,1.27
2022-11-21T04:34:58.161Z,1.80
2022-11-21T04:37:25.809Z,1.80
2022-11-21T04:39:53.560Z,0.70
2022-11-21T04:42:21.274Z,1.83
2022-11-21T04:44:49.089Z,1.02
2022-11-21T04:47:16.655Z,0.65
2022-11-21T04:49:44.158Z,2.47
2022-11-21T04:52:12.384Z,1.30
2022-11-21T04:54:40.108Z,1.15
2022-11-21T04:57:08.351Z,0.90
2022-11-21T04:59:36.087Z,1.92
2022-11-21T05:02:05.022Z,1.35
2022-11-21T05:04:32.367Z,1.58
2022-11-21T05:07:00.126Z,1.60
2022-11-21T05:09:27.851Z,2.13
2022-11-21T05:12:13.816Z,2.10
2022-11-21T05:14:41.529Z,0.70
2022-11-21T05:17:10.147Z,1.52
2022-11-21T05:19:37.881Z,1.88
2022-11-21T05:22:06.381Z,1.10
2022-11-21T05:24:34.246Z,1.20
2022-11-21T05:27:01.669Z,1.60
2022-11-21T05:29:29.017Z,2.40
2022-11-21T05:31:56.673Z,1.08
2022-11-21T05:34:24.157Z,1.88
2022-11-21T05:36:58.250Z,1.48
2022-11-21T05:39:26.276Z,7.25
2022-11-21T05:41:57.212Z,1.70
2022-11-21T05:44:28.934Z,1.88
2022-11-21T05:46:56.626Z,1.80
2022-11-21T05:49:24.227Z,1.85
2022-11-21T05:51:52.070Z,1.48
2022-11-21T05:54:19.716Z,3.15
2022-11-21T05:56:47.598Z,3.22
2022-11-21T05:59:15.689Z,1.95
2022-11-21T06:02:02.004Z,2.95
2022-11-21T06:04:30.238Z,4.00
2022-11-21T06:06:58.099Z,2.45
2022-11-21T06:09:25.783Z,3.78
2022-11-21T06:11:53.319Z,2.40
2022-11-21T06:14:20.924Z,4.07
2022-11-21T06:16:48.432Z,1.83
2022-11-21T06:19:15.973Z,3.47
2022-11-21T06:21:43.760Z,2.63
2022-11-21T06:24:12.385Z,4.65
2022-11-21T06:26:40.024Z,4.55
2022-11-21T06:29:10.554Z,2.65
2022-11-21T06:31:39.279Z,3.78
2022-11-21T06:34:06.989Z,2.95
2022-11-21T06:36:34.834Z,4.07
2022-11-21T06:39:02.464Z,3.33
2022-11-21T06:41:32.660Z,4.50
2022-11-21T06:46:29.664Z,5.70
2022-11-21T06:48:57.260Z,9.38
2022-11-21T06:51:26.092Z,3.65
2022-11-21T06:53:57.800Z,2.83
2022-11-21T06:56:26.723Z,3.67
2022-11-21T06:58:54.551Z,3.17
2022-11-21T07:01:22.529Z,5.65
2022-11-21T07:03:50.488Z,4.18
2022-11-21T07:06:18.198Z,4.75
2022-11-21T07:08:45.882Z,3.65
2022-11-21T07:11:25.533Z,6.88
2022-11-21T07:13:53.702Z,3.97
2022-11-21T07:16:21.514Z,3.63
2022-11-21T07:18:49.299Z,2.55
2022-11-21T07:21:17.190Z,8.52
2022-11-21T07:23:44.676Z,4.18
2022-11-21T07:26:12.743Z,9.10
2022-11-21T07:28:40.244Z,3.45
2022-11-21T07:31:13.572Z,10.43
2022-11-21T07:33:43.539Z,4.82
2022-11-21T07:36:12.213Z,4.38
2022-11-21T07:38:41.485Z,3.92
2022-11-21T07:41:09.713Z,9.63
2022-11-21T07:43:37.311Z,5.13
2022-11-21T07:46:04.995Z,5.25
2022-11-21T07:48:32.759Z,4.63
2022-11-21T07:51:00.609Z,7.00
2022-11-21T07:53:28.229Z,2.92
2022-11-21T07:55:58.444Z,3.55
2022-11-21T08:00:53.916Z,6.32
2022-11-21T08:03:25.385Z,4.97
2022-11-21T08:05:52.593Z,5.18
2022-11-21T08:08:20.187Z,5.53
2022-11-21T08:10:47.925Z,7.55
2022-11-21T08:13:15.995Z,5.50
2022-11-21T08:15:43.915Z,6.35
2022-11-21T08:18:12.396Z,6.85
2022-11-21T08:20:40.231Z,5.65
2022-11-21T08:23:08.802Z,5.72
2022-11-21T08:25:38.531Z,5.30
2022-11-21T08:28:06.763Z,3.15
2022-11-21T08:30:34.960Z,4.30
2022-11-21T08:33:03.017Z,6.55
2022-11-21T08:35:30.771Z,4.25
2022-11-21T08:37:59.130Z,5.18
2022-11-21T08:40:27.429Z,3.40
2022-11-21T08:43:07.961Z,6.22
2022-11-21T08:45:39.850Z,4.57
2022-11-21T08:48:11.667Z,5.35
2022-11-21T08:50:45.736Z,4.68
2022-11-21T08:53:14.490Z,3.83
2022-11-21T08:55:42.181Z,4.20
2022-11-21T08:58:09.883Z,3.85
2022-11-21T09:00:37.793Z,4.32
2022-11-21T09:03:05.968Z,4.57
2022-11-21T09:05:34.209Z,4.45
2022-11-21T09:08:02.118Z,6.10
2022-11-21T09:10:29.712Z,4.30
2022-11-21T09:13:00.697Z,3.30
2022-11-21T09:15:47.925Z,4.97
2022-11-21T09:18:15.629Z,5.57
2022-11-21T09:20:44.650Z,4.13
2022-11-21T09:23:14.697Z,5.25
2022-11-21T09:25:43.354Z,3.33
2022-11-21T09:28:12.050Z,6.90
2022-11-21T09:30:40.080Z,4.40
2022-11-21T09:33:11.069Z,5.75
2022-11-21T09:35:39.037Z,4.53
2022-11-21T09:38:08.759Z,3.22
2022-11-21T09:40:36.926Z,4.28
2022-11-21T09:43:23.364Z,3.45
2022-11-21T09:45:52.942Z,5.13
2022-11-21T09:48:32.655Z,4.50
2022-11-21T09:51:09.989Z,3.97
2022-11-21T09:53:39.104Z,4.55
2022-11-21T09:56:15.144Z,3.85
2022-11-21T09:58:49.966Z,4.65
2022-11-21T10:01:18.327Z,6.82
2022-11-21T10:03:53.116Z,5.75
2022-11-21T10:06:22.040Z,4.47
2022-11-21T10:09:04.464Z,4.55
2022-11-21T10:12:03.396Z,5.47
2022-11-21T10:15:16.631Z,7.03
2022-11-21T10:18:21.081Z,4.20
2022-11-21T10:20:56.182Z,4.50
2022-11-21T10:23:29.694Z,4.85
2022-11-21T10:25:58.284Z,3.65
2022-11-21T10:28:32.549Z,4.00
2022-11-21T10:31:01.997Z,4.88
2022-11-21T10:33:33.826Z,6.25
2022-11-21T10:36:09.792Z,2.60
2022-11-21T10:38:42.204Z,4.68
2022-11-21T10:41:28.055Z,3.25
2022-11-21T10:44:22.513Z,3.00
2022-11-21T10:47:00.717Z,3.03
2022-11-21T10:49:32.570Z,2.80
2022-11-21T10:52:11.100Z,5.85
2022-11-21T10:55:03.600Z,4.03
2022-11-21T10:57:51.415Z,5.20
2022-11-21T11:00:33.898Z,3.75
2022-11-21T11:03:05.551Z,4.30
2022-11-21T11:05:41.574Z,4.40
2022-11-21T11:08:13.228Z,3.78
2022-11-21T11:10:43.804Z,3.42
2022-11-21T11:13:50.905Z,2.83
2022-11-21T11:18:49.692Z,4.10
2022-11-21T11:21:20.597Z,5.95
2022-11-21T11:23:51.105Z,5.68
2022-11-21T11:26:26.562Z,4.57
2022-11-21T11:28:56.067Z,4.85
2022-11-21T11:31:24.254Z,5.78
2022-11-21T11:33:53.898Z,3.35
2022-11-21T11:36:45.332Z,5.43
2022-11-21T11:39:22.434Z,3.70
2022-11-21T11:42:27.202Z,3.40
2022-11-21T11:45:31.129Z,4.63
2022-11-21T11:48:05.613Z,3.78
2022-11-21T11:50:33.281Z,4.07
2022-11-21T11:53:33.899Z,2.80
2022-11-21T11:56:23.982Z,3.90
2022-11-21T11:58:51.406Z,4.78
2022-11-21T12:01:30.593Z,2.85
2022-11-21T12:04:04.382Z,3.67
2022-11-21T12:07:41.152Z,2.70
2022-11-21T12:09:43.408Z,4.18
2022-11-21T12:12:17.856Z,4.10
2022-11-21T12:15:22.462Z,4.70
2022-11-21T12:18:20.635Z,4.53
2022-11-21T12:21:06.243Z,3.78
2022-11-21T12:23:55.327Z,6.00
2022-11-21T12:26:43.960Z,4.70
2022-11-21T12:29:35.542Z,3.97
2022-11-21T12:32:21.587Z,3.38
2022-11-21T12:34:59.215Z,4.78
2022-11-21T12:37:52.890Z,3.28
2022-11-21T12:40:52.715Z,4.90
2022-11-21T12:43:38.251Z,2.80
2022-11-21T12:46:19.708Z,5.32
2022-11-21T12:49:33.471Z,3.33
2022-11-21T12:52:52.248Z,2.92
2022-11-21T12:55:40.301Z,3.30
2022-11-21T12:58:33.381Z,4.47
2022-11-21T13:01:23.610Z,4.15
2022-11-21T13:04:06.294Z,2.55
2022-11-21T13:06:37.348Z,3.75
2022-11-21T13:09:06.870Z,4.40
2022-11-21T13:12:00.324Z,3.75
2022-11-21T13:14:35.033Z,3.33
2022-11-21T13:17:20.628Z,3.50
2022-11-21T13:19:59.614Z,2.80
2022-11-21T13:22:37.888Z,3.00
2022-11-21T13:25:10.005Z,4.53
2022-11-21T13:27:58.100Z,4.20
2022-11-21T13:30:26.211Z,5.45
2022-11-21T13:32:55.083Z,4.45
2022-11-21T13:35:22.478Z,5.90
2022-11-21T13:37:54.200Z,3.50
2022-11-21T13:40:27.732Z,3.30
2022-11-21T13:43:36.719Z,3.80
2022-11-21T13:46:04.813Z,3.65
2022-11-21T13:48:53.006Z,4.78
2022-11-21T13:51:38.797Z,4.97
2022-11-21T13:54:12.081Z,3.30
2022-11-21T13:57:04.255Z,4.75
2022-11-21T14:00:19.888Z,3.45
2022-11-21T14:03:07.548Z,4.28
2022-11-21T14:05:59.420Z,2.15
2022-11-21T14:08:29.403Z,10.00
2022-11-21T14:10:58.321Z,3.38
2022-11-21T14:13:30.712Z,4.00
2022-11-21T14:16:17.822Z,3.47
2022-11-21T14:18:47.239Z,4.70
2022-11-21T14:21:31.046Z,3.83
2022-11-21T14:24:05.413Z,2.45
2022-11-21T14:26:36.972Z,2.65
2022-11-21T14:29:41.054Z,4.15
2022-11-21T14:32:15.290Z,3.58
2022-11-21T14:34:43.222Z,5.13
2022-11-21T14:37:14.087Z,5.20
2022-11-21T14:39:44.885Z,3.30
2022-11-21T14:42:17.494Z,5.20
2022-11-21T14:44:45.353Z,2.08
2022-11-21T14:47:25.323Z,3.20
2022-11-21T14:50:06.884Z,2.47
2022-11-21T14:52:35.151Z,3.55
2022-11-21T14:57:53.423Z,6.32
2022-11-21T15:00:57.420Z,3.92
2022-11-21T15:03:22.997Z,3.30
2022-11-21T15:06:05.093Z,2.63
2022-11-21T15:11:26.270Z,2.15
2022-11-21T15:14:15.395Z,3.38
2022-11-21T15:16:48.018Z,2.40
2022-11-21T15:19:24.058Z,2.65
2022-11-21T15:21:54.705Z,2.67
2022-11-21T15:24:42.759Z,2.13
2022-11-21T15:27:40.576Z,1.95
2022-11-21T15:30:34.138Z,2.22
2022-11-21T15:33:20.991Z,1.88
2022-11-21T15:35:54.081Z,2.17
2022-11-21T15:38:45.038Z,3.47
2022-11-21T15:41:15.089Z,2.20
2022-11-21T15:43:45.537Z,1.95
2022-11-21T15:46:30.137Z,2.35
2022-11-21T15:49:06.243Z,1.55
2022-11-21T15:54:35.173Z,1.60
2022-11-21T15:57:02.480Z,2.60
2022-11-21T15:59:29.924Z,2.60
2022-11-21T16:01:57.640Z,1.35
2022-11-21T16:04:26.641Z,3.08
2022-11-21T16:06:57.406Z,1.88
2022-11-21T16:09:25.246Z,1.70
2022-11-21T16:11:52.980Z,1.13
2022-11-21T16:14:20.589Z,1.38
2022-11-21T16:16:48.702Z,1.90
2022-11-21T16:19:16.562Z,1.10
2022-11-21T16:21:44.331Z,0.65
2022-11-21T16:24:12.791Z,1.45
2022-11-21T16:26:40.568Z,1.75
2022-11-21T16:29:10.667Z,0.93
2022-11-21T16:34:06.724Z,1.20
2022-11-21T16:36:34.504Z,1.48
2022-11-21T16:39:08.073Z,1.08
2022-11-21T16:41:39.478Z,0.70
2022-11-21T16:44:14.044Z,1.95
2022-11-21T16:46:51.729Z,1.70
2022-11-21T16:49:20.274Z,1.73
2022-11-21T16:51:47.590Z,1.50
2022-11-21T16:54:15.725Z,1.30
2022-11-21T16:56:43.235Z,2.03
2022-11-21T16:59:10.689Z,1.33
2022-11-21T17:01:38.426Z,1.23
2022-11-21T17:04:07.047Z,2.10
2022-11-21T17:06:34.662Z,1.17
2022-11-21T17:09:02.867Z,1.85
2022-11-21T17:11:31.624Z,1.52
2022-11-21T17:14:04.658Z,2.50
2022-11-21T17:16:33.031Z,1.02
2022-11-21T17:19:01.867Z,2.05
2022-11-21T17:21:30.251Z,1.10
2022-11-21T17:23:58.531Z,1.55
2022-11-21T17:26:28.045Z,1.60
2022-11-21T17:28:58.605Z,1.35
2022-11-21T17:31:26.257Z,1.90
2022-11-21T17:33:55.643Z,2.47
2022-11-21T17:36:24.008Z,1.98
2022-11-21T17:38:53.074Z,0.98
2022-11-21T17:41:22.940Z,1.40
2022-11-21T17:43:53.728Z,0.82
2022-11-21T17:46:21.429Z,1.20
2022-11-21T17:48:55.535Z,0.93
2022-11-21T17:51:29.925Z,2.22
2022-11-21T17:53:57.951Z,1.52
2022-11-21T17:56:28.042Z,1.35
2022-11-21T18:01:23.575Z,2.00
2022-11-21T18:04:01.610Z,1.27
2022-11-21T18:06:33.521Z,0.70
2022-11-21T18:09:01.331Z,1.15
2022-11-21T18:11:33.084Z,1.00
2022-11-21T18:14:03.831Z,1.70
2022-11-21T18:16:33.542Z,0.95
2022-11-21T18:19:01.131Z,1.08
2022-11-21T18:21:30.647Z,0.90
2022-11-21T18:23:59.862Z,0.75
2022-11-21T18:26:36.136Z,1.10
2022-11-21T18:31:53.974Z,0.98
2022-11-21T18:34:21.887Z,1.60
2022-11-21T18:36:49.411Z,0.90
2022-11-21T18:39:17.083Z,1.33
2022-11-21T18:41:44.907Z,2.42
2022-11-21T18:44:20.159Z,0.88
2022-11-21T18:46:49.681Z,1.45
2022-11-21T18:49:19.743Z,0.88
2022-11-21T18:51:48.439Z,0.80
2022-11-21T18:54:16.413Z,0.50
2022-11-21T18:56:44.093Z,1.30
2022-11-21T18:59:11.806Z,0.60
2022-11-21T19:01:40.088Z,1.10
2022-11-21T19:04:07.989Z,0.88
2022-11-21T19:06:35.776Z,0.90
2022-11-21T19:09:03.337Z,0.93
2022-11-21T19:11:31.385Z,1.10
2022-11-21T19:14:00.837Z,1.13
2022-11-21T19:16:31.282Z,0.80
2022-11-21T19:19:32.451Z,1.10
2022-11-21T19:21:47.317Z,0.90
2022-11-21T19:24:19.603Z,1.00
2022-11-21T19:26:50.457Z,0.90
2022-11-21T19:29:19.046Z,0.95
2022-11-21T19:31:46.649Z,0.85
2022-11-21T19:34:15.592Z,1.00
2022-11-21T19:36:43.421Z,0.90
2022-11-21T19:39:11.189Z,1.30
2022-11-21T19:41:39.247Z,0.90
2022-11-21T19:44:06.757Z,0.88
2022-11-21T19:46:36.927Z,1.13
2022-11-21T19:51:35.928Z,1.05
2022-11-21T19:54:04.854Z,1.20
2022-11-21T19:56:32.672Z,1.00
2022-11-21T19:59:00.453Z,0.93
2022-11-21T20:01:30.583Z,1.15
2022-11-21T20:06:31.531Z,1.60
2022-11-21T20:09:00.417Z,1.00
2022-11-21T20:11:29.863Z,1.27
2022-11-21T20:13:57.674Z,0.90
2022-11-21T20:16:31.215Z,1.48
2022-11-21T20:19:01.113Z,1.13
2022-11-21T20:21:30.537Z,1.00
2022-11-21T20:23:58.606Z,1.10
2022-11-21T20:26:27.261Z,1.73
2022-11-21T20:28:55.231Z,0.90
2022-11-21T20:31:27.229Z,1.58
2022-11-21T20:34:00.777Z,1.15
2022-11-21T20:36:29.610Z,1.35
2022-11-21T20:39:01.601Z,1.40
2022-11-21T20:41:30.891Z,1.10
2022-11-21T20:46:48.863Z,0.95
2022-11-21T20:49:17.640Z,0.98
2022-11-21T20:54:33.215Z,1.08
2022-11-21T20:57:00.826Z,1.45
2022-11-21T20:59:28.927Z,1.20
2022-11-21T21:01:57.042Z,1.00
2022-11-21T21:04:24.642Z,1.38
2022-11-21T21:06:52.198Z,1.10
2022-11-21T21:09:20.045Z,1.30
2022-11-21T21:11:53.092Z,1.27
2022-11-21T21:14:22.392Z,1.38
2022-11-21T21:16:50.486Z,1.15
2022-11-21T21:19:18.522Z,1.70
2022-11-21T21:21:47.403Z,1.20
2022-11-21T21:24:15.997Z,1.25
2022-11-21T21:26:46.516Z,1.30
2022-11-21T21:29:22.147Z,1.10
2022-11-21T21:31:52.384Z,1.08
2022-11-21T21:34:21.904Z,1.00
2022-11-21T21:36:50.925Z,1.08
2022-11-21T21:39:20.872Z,1.30
2022-11-21T21:41:48.685Z,1.27
2022-11-21T21:44:16.962Z,1.60
2022-11-21T21:46:44.657Z,1.02
2022-11-21T21:49:12.711Z,1.00
2022-11-21T21:51:40.336Z,0.80
2022-11-21T21:54:13.723Z,1.33
2022-11-21T21:56:41.128Z,1.30
2022-11-21T21:59:08.759Z,1.10
2022-11-21T22:01:36.452Z,1.20
2022-11-21T22:04:05.759Z,0.85
2022-11-21T22:06:36.620Z,1.13
2022-11-21T22:09:04.394Z,1.20
2022-11-21T22:11:35.972Z,0.90
2022-11-21T22:14:05.642Z,1.00
2022-11-21T22:16:33.445Z,1.30
2022-11-21T22:19:01.239Z,1.10
2022-11-21T22:21:32.860Z,1.48
2022-11-21T22:24:28.219Z,1.38
2022-11-21T22:26:55.848Z,1.40
2022-11-21T22:29:23.528Z,1.17
2022-11-21T22:31:51.627Z,1.30
2022-11-21T22:34:19.543Z,1.15
2022-11-21T22:36:47.272Z,1.00
2022-11-21T22:39:15.516Z,1.10
2022-11-21T22:41:43.393Z,1.15
2022-11-21T22:44:10.979Z,1.25
2022-11-21T22:46:38.805Z,1.10
2022-11-21T22:49:06.464Z,1.00
2022-11-21T22:51:34.769Z,1.13
2022-11-21T22:54:02.241Z,1.00
2022-11-21T22:56:29.934Z,1.33
2022-11-21T22:58:57.654Z,1.17
2022-11-21T23:01:26.435Z,1.42
2022-11-21T23:03:55.793Z,1.20
2022-11-21T23:06:25.299Z,1.17
2022-11-21T23:08:57.485Z,1.15
2022-11-21T23:11:36.353Z,1.10
2022-11-21T23:14:07.969Z,1.08
2022-11-21T23:16:35.376Z,1.23
2022-11-21T23:19:03.155Z,1.20
2022-11-21T23:21:30.685Z,0.98
2022-11-21T23:23:59.123Z,1.50
2022-11-21T23:26:26.452Z,1.38
2022-11-21T23:28:54.248Z,1.20
2022-11-21T23:31:21.941Z,0.90
2022-11-21T23:33:49.671Z,1.60
2022-11-21T23:36:17.514Z,1.80
2022-11-21T23:38:45.467Z,1.33
2022-11-21T23:41:12.844Z,1.23
2022-11-21T23:43:40.709Z,1.10
2022-11-21T23:46:08.241Z,1.10
2022-11-21T23:48:35.926Z,1.10
2022-11-21T23:51:03.656Z,1.35
2022-11-21T23:53:31.482Z,1.40
2022-11-21T23:55:59.072Z,1.33
2022-11-21T23:58:26.789Z,0.90
